createdAt,value
2019-05-07T00:02:06.904Z,99.90
2019-05-07T00:04:38.346Z,99.90
2019-05-07T00:07:10.350Z,99.90
2019-05-07T00:09:42.997Z,99.90
2019-05-07T00:12:14.543Z,99.90
2019-05-07T00:14:58.171Z,99.90
2019-05-07T00:17:19.186Z,99.90
2019-05-07T00:19:52.614Z,99.90
2019-05-07T00:22:23.740Z,99.90
2019-05-07T00:24:54.766Z,99.90
2019-05-07T00:27:25.430Z,99.90
2019-05-07T00:29:57.456Z,99.90
2019-05-07T00:32:29.505Z,99.90
2019-05-07T00:35:03.455Z,99.90
2019-05-07T00:37:43.855Z,99.90
2019-05-07T00:40:28.279Z,99.90
2019-05-07T00:43:09.261Z,99.90
2019-05-07T00:46:05.739Z,99.90
2019-05-07T00:48:38.359Z,99.90
2019-05-07T00:51:43.598Z,99.90
2019-05-07T00:54:14.923Z,99.90
2019-05-07T00:56:46.862Z,99.90
2019-05-07T00:59:17.824Z,99.90
2019-05-07T01:01:49.092Z,99.90
2019-05-07T01:04:22.752Z,99.90
2019-05-07T01:06:53.755Z,99.90
2019-05-07T01:09:25.640Z,99.90
2019-05-07T01:11:56.899Z,99.90
2019-05-07T01:14:28.530Z,99.90
2019-05-07T01:16:59.228Z,99.90
2019-05-07T01:19:32.883Z,99.90
2019-05-07T01:22:04.173Z,99.90
2019-05-07T01:24:35.224Z,99.90
2019-05-07T01:27:07.083Z,99.90
2019-05-07T01:29:38.053Z,99.90
2019-05-07T01:32:17.072Z,99.90
2019-05-07T01:34:58.919Z,99.90
2019-05-07T01:37:29.887Z,99.90
2019-05-07T01:40:03.017Z,99.90
2019-05-07T01:42:36.730Z,99.90
2019-05-07T01:45:10.286Z,99.90
2019-05-07T01:47:42.571Z,99.90
2019-05-07T01:50:13.926Z,99.90
2019-05-07T01:52:45.184Z,99.90
2019-05-07T01:55:17.141Z,99.90
2019-05-07T01:57:48.845Z,99.90
2019-05-07T02:00:22.413Z,99.90
2019-05-07T02:02:58.979Z,99.90
2019-05-07T02:05:42.281Z,99.90
2019-05-07T02:08:17.575Z,99.90
2019-05-07T02:11:02.062Z,99.90
2019-05-07T02:13:33.962Z,99.90
2019-05-07T02:16:04.987Z,99.90
2019-05-07T02:18:35.921Z,99.90
2019-05-07T02:21:07.038Z,99.90
2019-05-07T02:23:37.976Z,99.90
2019-05-07T02:26:09.512Z,99.90
2019-05-07T02:28:42.668Z,99.90
2019-05-07T02:31:15.196Z,99.90
2019-05-07T02:33:46.282Z,99.90
2019-05-07T02:36:18.512Z,99.90
2019-05-07T02:39:06.794Z,99.90
2019-05-07T02:41:38.046Z,99.90
2019-05-07T02:44:09.712Z,99.90
2019-05-07T02:46:52.756Z,99.90
2019-05-07T02:49:48.503Z,99.90
2019-05-07T02:52:28.869Z,99.90
2019-05-07T02:55:16.190Z,99.90
2019-05-07T02:57:47.436Z,99.90
2019-05-07T03:00:19.552Z,99.90
2019-05-07T03:02:53.102Z,99.90
2019-05-07T03:05:24.589Z,99.90
2019-05-07T03:07:56.011Z,99.90
2019-05-07T03:10:27.395Z,99.90
2019-05-07T03:12:58.665Z,99.90
2019-05-07T03:15:33.237Z,99.90
2019-05-07T03:18:03.838Z,99.90
2019-05-07T03:20:42.984Z,99.90
2019-05-07T03:23:16.436Z,99.90
2019-05-07T03:26:15.968Z,99.90
2019-05-07T03:28:55.517Z,99.90
2019-05-07T03:31:46.733Z,99.90
2019-05-07T03:34:36.902Z,99.90
2019-05-07T03:37:08.915Z,99.90
2019-05-07T03:39:42.931Z,99.90
2019-05-07T03:42:13.835Z,99.90
2019-05-07T03:45:06.643Z,99.90
2019-05-07T03:47:44.059Z,99.90
2019-05-07T03:50:15.181Z,99.90
2019-05-07T03:52:46.185Z,99.90
2019-05-07T03:55:17.930Z,99.90
2019-05-07T03:57:52.550Z,99.90
2019-05-07T04:00:23.876Z,99.90
2019-05-07T04:02:55.756Z,99.90
2019-05-07T04:05:27.627Z,99.90
2019-05-07T04:07:58.581Z,99.90
2019-05-07T04:10:33.519Z,99.90
2019-05-07T04:13:04.704Z,99.90
2019-05-07T04:15:36.200Z,99.90
2019-05-07T04:18:07.787Z,99.90
2019-05-07T04:20:39.401Z,99.90
2019-05-07T04:23:13.625Z,99.90
2019-05-07T04:26:08.563Z,99.90
2019-05-07T04:29:05.714Z,99.90
2019-05-07T04:31:42.980Z,99.90
2019-05-07T04:34:24.467Z,99.90
2019-05-07T04:36:56.040Z,99.90
2019-05-07T04:39:27.551Z,99.90
2019-05-07T04:41:59.219Z,99.90
2019-05-07T04:44:33.033Z,99.90
2019-05-07T04:47:04.417Z,99.90
2019-05-07T04:49:36.383Z,99.90
2019-05-07T04:52:15.104Z,99.90
2019-05-07T04:54:45.471Z,99.90
2019-05-07T04:57:28.698Z,99.90
2019-05-07T05:00:03.530Z,99.90
2019-05-07T05:02:46.781Z,99.90
2019-05-07T05:05:23.258Z,99.90
2019-05-07T05:07:53.319Z,99.90
2019-05-07T05:10:24.244Z,99.90
2019-05-07T05:12:55.248Z,99.90
2019-05-07T05:15:27.183Z,99.90
2019-05-07T05:17:59.066Z,99.90
2019-05-07T05:20:36.467Z,99.90
2019-05-07T05:23:29.475Z,99.90
2019-05-07T05:26:01.932Z,99.90
2019-05-07T05:28:33.523Z,99.90
2019-05-07T05:31:06.217Z,99.90
2019-05-07T05:33:36.934Z,99.90
2019-05-07T05:36:08.545Z,99.90
2019-05-07T05:38:42.153Z,99.90
2019-05-07T05:41:12.760Z,99.90
2019-05-07T05:43:53.921Z,99.90
2019-05-07T05:46:26.840Z,99.90
2019-05-07T05:48:58.412Z,99.90
2019-05-07T05:51:54.628Z,99.90
2019-05-07T05:54:33.621Z,99.90
2019-05-07T05:57:16.615Z,99.90
2019-05-07T06:00:09.515Z,99.90
2019-05-07T06:03:08.751Z,99.90
2019-05-07T06:06:02.031Z,99.90
2019-05-07T06:08:48.392Z,99.90
2019-05-07T06:11:38.519Z,99.90
2019-05-07T06:14:28.895Z,99.90
2019-05-07T06:17:22.371Z,99.90
2019-05-07T06:20:25.102Z,99.90
2019-05-07T06:23:33.687Z,99.90
2019-05-07T06:26:05.521Z,99.90
2019-05-07T06:28:36.799Z,99.90
2019-05-07T06:31:08.078Z,99.90
2019-05-07T06:33:39.306Z,99.90
2019-05-07T06:36:12.378Z,99.90
2019-05-07T06:38:53.134Z,99.90
2019-05-07T06:41:42.351Z,99.90
2019-05-07T06:44:22.386Z,99.90
2019-05-07T06:46:53.475Z,99.90
2019-05-07T06:49:25.074Z,99.90
2019-05-07T06:51:56.339Z,99.90
2019-05-07T06:54:28.026Z,99.90
2019-05-07T06:57:01.529Z,99.90
2019-05-07T06:59:42.342Z,99.90
2019-05-07T07:02:32.872Z,99.90
2019-05-07T07:05:14.203Z,99.90
2019-05-07T07:07:59.113Z,99.90
2019-05-07T07:10:47.788Z,99.90
2019-05-07T07:13:22.769Z,99.90
2019-05-07T07:15:54.398Z,99.90
2019-05-07T07:18:25.946Z,99.90
2019-05-07T07:20:57.877Z,99.90
2019-05-07T07:23:29.085Z,99.90
2019-05-07T07:26:02.919Z,99.90
2019-05-07T07:28:34.050Z,99.90
2019-05-07T07:31:15.148Z,99.90
2019-05-07T07:33:47.416Z,99.90
2019-05-07T07:36:22.532Z,99.90
2019-05-07T07:38:54.530Z,99.90
2019-05-07T07:41:42.148Z,99.90
2019-05-07T07:44:13.856Z,99.90
2019-05-07T07:46:45.741Z,99.90
2019-05-07T07:49:17.645Z,99.90
2019-05-07T07:51:48.657Z,99.90
2019-05-07T07:54:22.443Z,99.90
2019-05-07T07:57:21.777Z,99.90
2019-05-07T08:00:11.955Z,99.90
2019-05-07T08:02:49.373Z,99.90
2019-05-07T08:05:21.936Z,99.90
2019-05-07T08:07:53.354Z,99.90
2019-05-07T08:10:25.027Z,99.90
2019-05-07T08:12:56.312Z,99.90
2019-05-07T08:15:27.623Z,99.90
2019-05-07T08:17:58.931Z,99.90
2019-05-07T08:20:32.630Z,99.90
2019-05-07T08:23:04.303Z,99.90
2019-05-07T08:25:52.557Z,99.90
2019-05-07T08:28:24.453Z,99.90
2019-05-07T08:31:24.065Z,99.90
2019-05-07T08:34:02.276Z,99.90
2019-05-07T08:36:33.842Z,99.90
2019-05-07T08:39:05.919Z,99.90
2019-05-07T08:41:37.475Z,99.90
2019-05-07T08:44:16.886Z,99.90
2019-05-07T08:47:25.322Z,99.90
2019-05-07T08:49:57.309Z,99.90
2019-05-07T08:52:28.940Z,99.90
2019-05-07T08:55:02.022Z,99.90
2019-05-07T08:57:33.088Z,99.90
2019-05-07T09:00:05.041Z,99.90
2019-05-07T09:02:36.297Z,99.90
2019-05-07T09:05:09.275Z,99.90
2019-05-07T09:07:42.577Z,99.90
2019-05-07T09:10:13.961Z,99.90
2019-05-07T09:12:45.290Z,99.90
2019-05-07T09:15:16.684Z,99.90
2019-05-07T09:17:47.649Z,99.90
2019-05-07T09:20:19.282Z,99.90
2019-05-07T09:22:51.850Z,99.90
2019-05-07T09:25:23.662Z,99.90
2019-05-07T09:27:55.501Z,99.90
2019-05-07T09:31:03.871Z,99.90
2019-05-07T09:33:42.324Z,99.90
2019-05-07T09:36:22.762Z,99.90
2019-05-07T09:38:58.665Z,99.90
2019-05-07T09:41:27.337Z,99.90
2019-05-07T09:44:03.002Z,99.90
2019-05-07T09:46:33.827Z,99.90
2019-05-07T09:49:05.498Z,99.90
2019-05-07T09:51:37.090Z,99.90
2019-05-07T09:54:08.681Z,99.90
2019-05-07T09:56:39.698Z,99.90
2019-05-07T09:59:12.566Z,99.90
2019-05-07T10:01:43.427Z,99.90
2019-05-07T10:04:15.004Z,99.90
2019-05-07T10:06:46.850Z,99.90
2019-05-07T10:09:18.198Z,99.90
2019-05-07T10:11:55.527Z,99.90
2019-05-07T10:14:27.089Z,99.90
2019-05-07T10:17:07.155Z,99.90
2019-05-07T10:19:38.399Z,99.90
2019-05-07T10:22:10.041Z,99.90
2019-05-07T10:24:42.037Z,99.90
2019-05-07T10:27:13.719Z,98.30
2019-05-07T10:29:45.818Z,99.90
2019-05-07T10:32:17.540Z,99.90
2019-05-07T10:34:48.819Z,96.40
2019-05-07T10:37:20.398Z,92.80
2019-05-07T10:39:52.309Z,83.10
2019-05-07T10:42:24.050Z,73.60
2019-05-07T10:45:09.340Z,74.70
2019-05-07T10:48:02.822Z,70.70
2019-05-07T10:50:38.970Z,65.20
2019-05-07T10:53:06.992Z,69.40
2019-05-07T10:55:38.242Z,76.10
2019-05-07T10:58:09.206Z,69.10
2019-05-07T11:00:42.116Z,66.10
2019-05-07T11:03:13.602Z,66.30
2019-05-07T11:05:44.896Z,58.30
2019-05-07T11:08:16.309Z,67.50
2019-05-07T11:10:48.178Z,65.40
2019-05-07T11:13:21.759Z,62.60
2019-05-07T11:15:57.686Z,57.60
2019-05-07T11:18:38.470Z,56.60
2019-05-07T11:21:11.763Z,56.90
2019-05-07T11:23:43.951Z,60.00
2019-05-07T11:26:15.775Z,63.40
2019-05-07T11:28:47.761Z,67.90
2019-05-07T11:31:19.173Z,70.00
2019-05-07T11:33:52.107Z,84.40
2019-05-07T11:36:23.894Z,71.80
2019-05-07T11:38:55.928Z,78.70
2019-05-07T11:41:37.162Z,67.30
2019-05-07T11:44:16.679Z,58.50
2019-05-07T11:47:04.924Z,65.00
2019-05-07T11:49:54.490Z,55.30
2019-05-07T11:52:35.169Z,58.40
2019-05-07T11:55:03.896Z,55.40
2019-05-07T11:57:35.466Z,58.60
2019-05-07T12:00:09.649Z,59.00
2019-05-07T12:02:42.379Z,59.20
2019-05-07T12:05:14.218Z,59.00
2019-05-07T12:07:45.968Z,61.80
2019-05-07T12:10:17.320Z,59.60
2019-05-07T12:12:48.675Z,61.40
2019-05-07T12:15:21.765Z,66.60
2019-05-07T12:17:53.398Z,61.70
2019-05-07T12:20:24.965Z,57.90
2019-05-07T12:22:56.321Z,59.10
2019-05-07T12:25:27.884Z,62.20
2019-05-07T12:27:59.112Z,59.20
2019-05-07T12:30:42.871Z,61.90
2019-05-07T12:33:32.514Z,63.40
2019-05-07T12:36:04.550Z,68.00
2019-05-07T12:38:36.298Z,64.70
2019-05-07T12:41:25.638Z,58.90
2019-05-07T12:43:57.410Z,61.80
2019-05-07T12:46:28.800Z,69.90
2019-05-07T12:49:02.848Z,68.20
2019-05-07T12:51:38.725Z,72.00
2019-05-07T12:54:34.723Z,75.40
2019-05-07T12:57:04.787Z,71.80
2019-05-07T12:59:36.045Z,73.60
2019-05-07T13:02:40.560Z,73.60
2019-05-07T13:05:05.473Z,73.60
2019-05-07T13:08:01.675Z,70.70
2019-05-07T13:10:33.122Z,75.20
2019-05-07T13:13:04.738Z,82.10
2019-05-07T13:15:35.760Z,72.80
2019-05-07T13:18:06.917Z,73.50
2019-05-07T13:20:38.611Z,71.20
2019-05-07T13:23:12.008Z,77.70
2019-05-07T13:25:43.242Z,82.80
2019-05-07T13:28:14.850Z,84.20
2019-05-07T13:30:46.211Z,76.50
2019-05-07T13:33:19.499Z,73.40
2019-05-07T13:35:52.198Z,68.40
2019-05-07T13:38:51.759Z,70.00
2019-05-07T13:41:53.696Z,67.30
2019-05-07T13:44:43.088Z,73.00
2019-05-07T13:47:45.622Z,67.20
2019-05-07T13:50:17.344Z,64.00
2019-05-07T13:52:48.893Z,72.80
2019-05-07T13:55:21.760Z,63.10
2019-05-07T13:57:52.931Z,67.80
2019-05-07T14:00:32.320Z,68.50
2019-05-07T14:03:03.348Z,69.50
2019-05-07T14:05:36.088Z,62.10
2019-05-07T14:08:08.045Z,65.90
2019-05-07T14:10:39.920Z,60.50
2019-05-07T14:13:17.190Z,71.30
2019-05-07T14:16:03.959Z,61.90
2019-05-07T14:18:35.618Z,65.50
2019-05-07T14:21:07.318Z,65.60
2019-05-07T14:23:39.289Z,57.60
2019-05-07T14:26:10.016Z,59.00
2019-05-07T14:28:42.284Z,53.70
2019-05-07T14:31:13.109Z,54.30
2019-05-07T14:33:53.933Z,53.80
2019-05-07T14:36:28.632Z,54.60
2019-05-07T14:39:02.344Z,56.30
2019-05-07T14:41:33.200Z,56.40
2019-05-07T14:44:12.145Z,54.70
2019-05-07T14:46:50.556Z,54.50
2019-05-07T14:49:17.329Z,61.10
2019-05-07T14:51:49.119Z,55.30
2019-05-07T14:54:19.826Z,54.10
2019-05-07T14:56:51.834Z,61.60
2019-05-07T14:59:23.689Z,59.80
2019-05-07T15:01:54.873Z,59.70
2019-05-07T15:04:26.469Z,62.10
2019-05-07T15:06:58.174Z,59.80
2019-05-07T15:09:31.670Z,58.20
2019-05-07T15:12:03.157Z,56.80
2019-05-07T15:14:34.615Z,51.20
2019-05-07T15:17:32.576Z,58.90
2019-05-07T15:20:04.352Z,57.90
2019-05-07T15:22:52.689Z,58.20
2019-05-07T15:25:24.600Z,55.00
2019-05-07T15:27:55.875Z,51.90
2019-05-07T15:30:32.103Z,49.60
2019-05-07T15:33:03.309Z,52.20
2019-05-07T15:35:34.687Z,51.10
2019-05-07T15:38:06.720Z,51.30
2019-05-07T15:40:38.152Z,51.90
2019-05-07T15:43:09.785Z,51.00
2019-05-07T15:45:41.353Z,50.30
2019-05-07T15:48:12.797Z,51.90
2019-05-07T15:50:44.027Z,51.00
2019-05-07T15:53:28.542Z,52.70
2019-05-07T15:55:59.343Z,51.40
2019-05-07T15:58:31.223Z,54.80
2019-05-07T16:01:02.762Z,52.60
2019-05-07T16:03:43.013Z,53.50
2019-05-07T16:06:14.349Z,52.20
2019-05-07T16:08:54.335Z,53.60
2019-05-07T16:11:25.686Z,54.20
2019-05-07T16:14:14.528Z,55.60
2019-05-07T16:16:48.185Z,55.40
2019-05-07T16:19:24.408Z,55.00
2019-05-07T16:21:56.842Z,53.50
2019-05-07T16:24:27.568Z,54.10
2019-05-07T16:26:58.833Z,54.10
2019-05-07T16:29:33.672Z,55.50
2019-05-07T16:32:03.623Z,56.10
2019-05-07T16:34:35.053Z,56.50
2019-05-07T16:37:07.591Z,58.90
2019-05-07T16:39:39.118Z,55.60
2019-05-07T16:42:10.489Z,56.20
2019-05-07T16:44:42.238Z,55.90
2019-05-07T16:47:13.935Z,57.60
2019-05-07T16:49:44.894Z,58.80
2019-05-07T16:52:15.611Z,60.60
2019-05-07T16:54:46.935Z,61.80
2019-05-07T16:57:33.799Z,60.60
2019-05-07T17:00:06.397Z,62.30
2019-05-07T17:02:42.743Z,63.50
2019-05-07T17:05:15.218Z,61.60
2019-05-07T17:08:04.645Z,63.60
2019-05-07T17:10:36.272Z,64.20
2019-05-07T17:13:09.821Z,60.40
2019-05-07T17:15:57.322Z,61.80
2019-05-07T17:18:29.389Z,62.20
2019-05-07T17:21:02.316Z,61.60
2019-05-07T17:23:44.149Z,61.50
2019-05-07T17:26:07.148Z,63.60
2019-05-07T17:28:38.995Z,65.40
2019-05-07T17:31:12.258Z,65.20
2019-05-07T17:33:45.216Z,65.70
2019-05-07T17:36:17.163Z,66.10
2019-05-07T17:38:49.412Z,65.70
2019-05-07T17:41:26.520Z,66.50
2019-05-07T17:43:54.572Z,67.40
2019-05-07T17:46:26.862Z,67.30
2019-05-07T17:48:59.189Z,67.60
2019-05-07T17:51:49.125Z,71.30
2019-05-07T17:54:22.496Z,70.20
2019-05-07T17:56:54.568Z,73.70
2019-05-07T17:59:26.252Z,78.40
2019-05-07T18:02:32.682Z,76.60
2019-05-07T18:05:06.040Z,79.60
2019-05-07T18:07:38.258Z,82.10
2019-05-07T18:10:12.583Z,83.00
2019-05-07T18:12:44.939Z,85.80
2019-05-07T18:15:18.293Z,82.30
2019-05-07T18:18:04.171Z,84.40
2019-05-07T18:20:35.736Z,85.30
2019-05-07T18:23:10.253Z,92.70
2019-05-07T18:25:42.891Z,91.50
2019-05-07T18:28:16.105Z,96.80
2019-05-07T18:30:48.448Z,97.90
2019-05-07T18:33:44.776Z,99.90
2019-05-07T18:36:17.037Z,99.90
2019-05-07T18:38:49.040Z,99.90
2019-05-07T18:41:22.345Z,99.90
2019-05-07T18:43:54.682Z,99.90
2019-05-07T18:46:26.712Z,99.90
2019-05-07T18:48:58.042Z,99.90
2019-05-07T18:51:32.038Z,99.90
2019-05-07T18:54:03.278Z,99.90
2019-05-07T18:56:34.397Z,99.90
2019-05-07T18:59:05.960Z,99.90
2019-05-07T19:01:39.073Z,99.90
2019-05-07T19:04:12.701Z,99.90
2019-05-07T19:06:43.918Z,99.90
2019-05-07T19:09:15.521Z,99.90
2019-05-07T19:11:46.912Z,99.90
2019-05-07T19:14:18.849Z,99.90
2019-05-07T19:16:52.594Z,99.90
2019-05-07T19:19:24.061Z,99.90
2019-05-07T19:21:55.340Z,99.90
2019-05-07T19:24:26.933Z,99.90
2019-05-07T19:26:58.047Z,99.90
2019-05-07T19:29:32.369Z,99.90
2019-05-07T19:32:03.206Z,99.90
2019-05-07T19:34:35.217Z,99.90
2019-05-07T19:37:07.411Z,99.90
2019-05-07T19:39:38.949Z,99.90
2019-05-07T19:42:12.104Z,99.90
2019-05-07T19:44:43.638Z,99.90
2019-05-07T19:47:15.381Z,99.90
2019-05-07T19:49:47.060Z,99.90
2019-05-07T19:52:19.092Z,99.90
2019-05-07T19:54:58.899Z,99.90
2019-05-07T19:57:28.634Z,99.90
2019-05-07T20:00:00.188Z,99.90
2019-05-07T20:02:36.525Z,99.90
2019-05-07T20:05:08.523Z,99.90
2019-05-07T20:07:39.769Z,99.90
2019-05-07T20:10:12.912Z,99.90
2019-05-07T20:12:44.696Z,99.90
2019-05-07T20:15:15.890Z,99.90
2019-05-07T20:17:47.473Z,99.90
2019-05-07T20:20:22.015Z,99.90
2019-05-07T20:22:52.670Z,99.90
2019-05-07T20:25:24.589Z,99.90
2019-05-07T20:27:56.615Z,99.90
2019-05-07T20:30:28.439Z,99.90
2019-05-07T20:33:02.933Z,99.90
2019-05-07T20:35:37.212Z,99.90
2019-05-07T20:38:07.115Z,99.90
2019-05-07T20:40:39.176Z,99.90
2019-05-07T20:43:12.554Z,99.90
2019-05-07T20:45:43.941Z,99.90
2019-05-07T20:48:14.712Z,99.90
2019-05-07T20:50:45.744Z,99.90
2019-05-07T20:53:18.863Z,99.90
2019-05-07T20:55:56.031Z,99.90
2019-05-07T20:58:27.948Z,99.90
2019-05-07T21:00:59.528Z,99.90
2019-05-07T21:03:32.461Z,99.90
2019-05-07T21:06:03.993Z,99.90
2019-05-07T21:08:35.632Z,99.90
2019-05-07T21:11:07.344Z,99.90
2019-05-07T21:13:41.839Z,99.90
2019-05-07T21:16:13.028Z,99.90
2019-05-07T21:18:44.698Z,99.90
2019-05-07T21:21:15.689Z,99.90
2019-05-07T21:23:47.029Z,99.90
2019-05-07T21:26:18.311Z,99.90
2019-05-07T21:28:52.608Z,99.90
2019-05-07T21:31:23.711Z,99.90
2019-05-07T21:33:54.794Z,99.90
2019-05-07T21:36:26.450Z,99.90
2019-05-07T21:38:58.214Z,99.90
2019-05-07T21:41:29.772Z,99.90
2019-05-07T21:44:01.074Z,99.90
2019-05-07T21:46:33.114Z,99.90
2019-05-07T21:49:04.695Z,99.90
2019-05-07T21:51:36.399Z,99.90
2019-05-07T21:54:32.065Z,99.90
2019-05-07T21:57:27.981Z,99.90
2019-05-07T22:00:14.678Z,99.90
2019-05-07T22:02:46.247Z,99.90
2019-05-07T22:05:17.863Z,99.90
2019-05-07T22:07:49.865Z,99.90
2019-05-07T22:10:22.226Z,99.90
2019-05-07T22:12:54.595Z,99.90
2019-05-07T22:15:26.411Z,99.90
2019-05-07T22:17:58.214Z,99.90
2019-05-07T22:20:31.422Z,99.90
2019-05-07T22:23:03.043Z,99.90
2019-05-07T22:25:34.466Z,99.90
2019-05-07T22:28:05.460Z,99.90
2019-05-07T22:30:44.478Z,99.90
2019-05-07T22:33:22.707Z,99.90
2019-05-07T22:35:53.743Z,99.90
2019-05-07T22:38:25.396Z,99.90
2019-05-07T22:40:56.345Z,99.90
2019-05-07T22:43:27.906Z,99.90
2019-05-07T22:45:59.163Z,99.90
2019-05-07T22:48:32.476Z,99.90
2019-05-07T22:51:04.170Z,99.90
2019-05-07T22:53:35.124Z,99.90
2019-05-07T22:56:06.378Z,99.90
2019-05-07T22:58:42.101Z,99.90
2019-05-07T23:01:13.789Z,99.90
2019-05-07T23:03:45.387Z,99.90
2019-05-07T23:06:17.059Z,99.90
2019-05-07T23:08:48.914Z,99.90
2019-05-07T23:11:22.695Z,99.90
2019-05-07T23:13:54.773Z,99.90
2019-05-07T23:16:26.496Z,99.90
2019-05-07T23:18:58.023Z,99.90
2019-05-07T23:21:29.019Z,99.90
2019-05-07T23:24:00.299Z,99.90
2019-05-07T23:26:36.482Z,99.90
2019-05-07T23:29:05.242Z,99.90
2019-05-07T23:31:36.176Z,99.90
2019-05-07T23:34:07.704Z,99.90
2019-05-07T23:36:38.817Z,99.90
2019-05-07T23:39:12.500Z,99.90
2019-05-07T23:41:48.184Z,99.90
2019-05-07T23:44:22.887Z,99.90
2019-05-07T23:46:54.147Z,99.90
2019-05-07T23:49:25.368Z,99.90
2019-05-07T23:51:57.220Z,99.90
2019-05-07T23:54:28.779Z,99.90
2019-05-07T23:57:08.840Z,99.90
2019-05-07T23:59:33.558Z,99.90
